Petersburg, AK

4:48 AM AKDT on July 29, 2014 (GMT -0800)
Johnson Petersburg (PAPG) Elev 0 ft | 56.82 °N, 132.97 °W | Change Station

Current weather conditions updated 12 minutes ago

Overcast
Overcast
54 °F
Feels Like 54 °F
N
0
Wind Variable Wind from North

Today is forecast to be nearly the same temperature as yesterday. Cloudy, periods of rain.

Today
High -- | Low -- °F
--% Chance of Precip.
Yesterday
High -- | Low -- °F
Precip. -- in
4:47 AM 9:10 PM
Waxing Crescent, 6% visible
Pressure 29.97 in
Visibility 5.0 miles
Clouds Overcast 300 ft
Dew Point 52 °F
Humidity 94%
Rainfall 0.00 in
Snow Depth Not available.
UV 0 out of 12
Pollen Not available.
Air Quality Not available.
Flu Activity Not available.
METAR PAPG 291236Z 00000KT 5SM OVC003 12/11 A2997 RMK AO1

More Conditions Fewer Conditions

Pressure 29.97 in
Visibility 5.0 miles
Clouds Overcast 300 ft
Dew Point 52 °F
Humidity 94%
Rainfall 0.00 in
Snow Depth Not available.
UV 0 out of 12
Pollen Not available.
Air Quality Not available.
Flu Activity Not available.
METAR PAPG 291236Z 00000KT 5SM OVC003 12/11 A2997 RMK AO1

More Conditions Fewer Conditions

10-Day Weather Forecast

Almanac

Astronomy

Jul. 29, 2014 Rise Set
Actual Time 4:47 AM AKDT 9:10 PM AKDT
Civil Twilight 3:55 AM AKDT 10:02 PM AKDT
Nautical Twilight 2:31 AM AKDT 11:23 PM AKDT
Astronomical Twilight Sun does not rise Sun does not rise
Moon 8:15 AM AKDT 9:36 PM AKDT
Length of Visible Light 18h 06m
Length of Day
16h 23m
Tomorrow will be 3m 57s shorter.
Waxing Crescent, 6% of the Moon is Illuminated
Today
Waxing Crescent
Aug 3
First Quarter
Aug 10
Full
Aug 17
Last Quarter
Aug 25
New

Today's Extremes

State Highs State Lows

Community

WunderPhotos

Upload Photos

1,738,705 photos uploaded!

Nearby

Snow Depth

Station Depth Elevation
Long Lake 0 in 820 ft
Upper Tsaina River 0 in 1750 ft
Moraine 0 in 2100 ft
Grandview 0 in 1100 ft
Grouse Creek Divide 0 in 700 ft

Earthquake Activity

City Distance Mag. Time & Date
No recent earthquake activity has been reported nearby.
Minimum magnitude displayed is 2.5.

Coastal Water Temperatures

Place Temperature
No Stations Reporting

Nearby Weather Stations

Station Location Temp. Dew Point Humidity Wind Precip. Elev Updated Type
RAWS KAKE AK, Kake, AK 52 °F 52 °F 100% North  at  0 mph 0.00 in / hr 399 ft 3:55 AM AKDT MADIS
Papke's Landing, Petersburg, AK 54.9 °F 55 °F 99% SW  at  0.0 mph - / hr 75 ft 4:44 AM AKDT Normal

Show More Stations Show Fewer Stations